createdAt,value
2022-09-25T00:00:01.189Z,1011.73
2022-09-25T00:01:11.379Z,1011.68
2022-09-25T00:02:01.582Z,1011.72
2022-09-25T00:03:01.203Z,1011.71
2022-09-25T00:04:02.018Z,1011.72
2022-09-25T00:05:01.198Z,1011.75
2022-09-25T00:06:14.440Z,1011.7
2022-09-25T00:07:01.049Z,1011.69
2022-09-25T00:08:00.664Z,1011.71
2022-09-25T00:09:00.527Z,1011.71
2022-09-25T00:10:00.543Z,1011.67
2022-09-25T00:11:00.094Z,1011.67
2022-09-25T00:11:59.671Z,1011.67
2022-09-25T00:13:01.681Z,1011.67
2022-09-25T00:14:01.950Z,1011.67
2022-09-25T00:15:01.359Z,1011.67
2022-09-25T00:16:01.053Z,1011.67
2022-09-25T00:17:01.248Z,1011.64
2022-09-25T00:18:01.602Z,1011.67
2022-09-25T00:19:02.131Z,1011.64
2022-09-25T00:20:01.482Z,1011.68
2022-09-25T00:21:01.072Z,1011.65
2022-09-25T00:22:01.141Z,1011.69
2022-09-25T00:23:01.077Z,1011.69
2022-09-25T00:24:01.101Z,1011.7
2022-09-25T00:25:01.096Z,1011.71
2022-09-25T00:26:01.203Z,1011.68
2022-09-25T00:27:01.508Z,1011.68
2022-09-25T00:28:01.043Z,1011.69
2022-09-25T00:29:01.058Z,1011.72
2022-09-25T00:30:01.444Z,1011.66
2022-09-25T00:31:01.217Z,1011.66
2022-09-25T00:32:01.955Z,1011.68
2022-09-25T00:33:01.851Z,1011.62
2022-09-25T00:34:01.076Z,1011.69
2022-09-25T00:35:01.350Z,1011.63
2022-09-25T00:36:01.963Z,1011.67
2022-09-25T00:37:01.600Z,1011.62
2022-09-25T00:38:01.132Z,1011.66
2022-09-25T00:39:01.238Z,1011.62
2022-09-25T00:40:01.104Z,1011.65
2022-09-25T00:41:01.282Z,1011.65
2022-09-25T00:42:01.159Z,1011.64
2022-09-25T00:43:01.111Z,1011.68
2022-09-25T00:44:01.250Z,1011.67
2022-09-25T00:45:01.561Z,1011.63
2022-09-25T00:46:01.248Z,1011.69
2022-09-25T00:47:01.044Z,1011.67
2022-09-25T00:48:01.045Z,1011.63
2022-09-25T00:49:01.052Z,1011.63
2022-09-25T00:50:01.068Z,1011.64
2022-09-25T00:51:01.094Z,1011.61
2022-09-25T00:52:01.529Z,1011.65
2022-09-25T00:53:01.294Z,1011.61
2022-09-25T00:54:01.868Z,1011.64
2022-09-25T00:55:01.928Z,1011.57
2022-09-25T00:56:02.954Z,1011.59
2022-09-25T00:57:01.673Z,1011.55
2022-09-25T00:58:01.417Z,1011.62
2022-09-25T00:59:02.534Z,1011.63
2022-09-25T01:00:02.588Z,1011.62
2022-09-25T01:01:02.243Z,1011.61
2022-09-25T01:02:01.294Z,1011.6
2022-09-25T01:03:02.004Z,1011.63
2022-09-25T01:04:01.058Z,1011.64
2022-09-25T01:05:01.149Z,1011.66
2022-09-25T01:06:01.159Z,1011.66
2022-09-25T01:07:01.056Z,1011.66
2022-09-25T01:08:01.087Z,1011.62
2022-09-25T01:09:01.078Z,1011.63
2022-09-25T01:10:01.092Z,1011.58
2022-09-25T01:11:01.048Z,1011.57
2022-09-25T01:12:01.109Z,1011.62
2022-09-25T01:13:01.133Z,1011.65
2022-09-25T01:14:01.470Z,1011.63
2022-09-25T01:15:01.494Z,1011.6
2022-09-25T01:16:01.240Z,1011.59
2022-09-25T01:17:01.227Z,1011.58
2022-09-25T01:18:01.140Z,1011.57
2022-09-25T01:19:01.041Z,1011.58
2022-09-25T01:20:01.765Z,1011.57
2022-09-25T01:21:01.065Z,1011.56
2022-09-25T01:22:01.196Z,1011.61
2022-09-25T01:23:00.964Z,1011.55
2022-09-25T01:24:01.088Z,1011.6
2022-09-25T01:25:01.090Z,1011.63
2022-09-25T01:26:01.157Z,1011.66
2022-09-25T01:27:03.428Z,1011.66
2022-09-25T01:28:01.107Z,1011.68
2022-09-25T01:29:01.044Z,1011.67
2022-09-25T01:30:01.127Z,1011.67
2022-09-25T01:31:01.293Z,1011.7
2022-09-25T01:32:06.350Z,1011.66
2022-09-25T01:33:02.382Z,1011.67
2022-09-25T01:34:01.036Z,1011.69
2022-09-25T01:35:01.126Z,1011.69
2022-09-25T01:36:01.063Z,1011.67
2022-09-25T01:37:09.228Z,1011.69
2022-09-25T01:38:02.609Z,1011.7
2022-09-25T01:39:02.617Z,1011.73
2022-09-25T01:40:01.720Z,1011.68
2022-09-25T01:41:01.866Z,1011.69
2022-09-25T01:42:14.098Z,1011.67
2022-09-25T01:43:03.021Z,1011.62
2022-09-25T01:44:01.023Z,1011.68
2022-09-25T01:45:01.053Z,1011.64
2022-09-25T01:46:01.119Z,1011.59
2022-09-25T01:47:16.199Z,1011.6
2022-09-25T01:48:01.934Z,1011.59
2022-09-25T01:49:02.699Z,1011.56
2022-09-25T01:50:01.872Z,1011.6
2022-09-25T01:51:01.998Z,1011.56
2022-09-25T01:52:01.059Z,1011.6
2022-09-25T01:53:01.045Z,1011.55
2022-09-25T01:54:00.605Z,1011.6
2022-09-25T01:55:00.259Z,1011.59
2022-09-25T01:55:59.849Z,1011.6
2022-09-25T01:57:01.683Z,1011.63
2022-09-25T01:58:01.860Z,1011.6
2022-09-25T01:59:01.395Z,1011.61
2022-09-25T02:00:01.112Z,1011.63
2022-09-25T02:01:01.197Z,1011.54
2022-09-25T02:02:01.175Z,1011.57
2022-09-25T02:03:01.355Z,1011.55
2022-09-25T02:04:01.233Z,1011.57
2022-09-25T02:05:01.269Z,1011.56
2022-09-25T02:06:00.731Z,1011.53
2022-09-25T02:07:00.336Z,1011.52
2022-09-25T02:07:59.893Z,1011.54
2022-09-25T02:08:59.842Z,1011.55
2022-09-25T02:10:01.524Z,1011.55
2022-09-25T02:11:01.094Z,1011.55
2022-09-25T02:12:01.096Z,1011.53
2022-09-25T02:13:02.017Z,1011.51
2022-09-25T02:14:01.190Z,1011.53
2022-09-25T02:15:01.281Z,1011.49
2022-09-25T02:16:01.112Z,1011.54
2022-09-25T02:17:01.205Z,1011.52
2022-09-25T02:18:01.122Z,1011.53
2022-09-25T02:19:00.702Z,1011.47
2022-09-25T02:20:01.015Z,1011.48
2022-09-25T02:21:01.153Z,1011.44
2022-09-25T02:22:01.561Z,1011.46
2022-09-25T02:23:01.268Z,1011.42
2022-09-25T02:24:03.996Z,1011.44
2022-09-25T02:25:01.849Z,1011.44
2022-09-25T02:26:01.861Z,1011.44
2022-09-25T02:27:02.026Z,1011.41
2022-09-25T02:28:01.563Z,1011.38
2022-09-25T02:29:01.240Z,1011.4
2022-09-25T02:30:01.485Z,1011.4
2022-09-25T02:31:02.287Z,1011.42
2022-09-25T02:32:02.295Z,1011.44
2022-09-25T02:33:02.016Z,1011.4
2022-09-25T02:34:01.047Z,1011.39
2022-09-25T02:35:01.327Z,1011.39
2022-09-25T02:36:01.040Z,1011.36
2022-09-25T02:37:01.286Z,1011.36
2022-09-25T02:38:01.574Z,1011.32
2022-09-25T02:39:02.182Z,1011.37
2022-09-25T02:40:01.268Z,1011.36
2022-09-25T02:41:01.088Z,1011.36
2022-09-25T02:42:01.271Z,1011.35
2022-09-25T02:43:01.080Z,1011.32
2022-09-25T02:44:01.128Z,1011.31
2022-09-25T02:45:01.164Z,1011.35
2022-09-25T02:46:01.096Z,1011.35
2022-09-25T02:47:02.129Z,1011.35
2022-09-25T02:48:01.513Z,1011.36
2022-09-25T02:49:01.118Z,1011.4
2022-09-25T02:50:01.118Z,1011.37
2022-09-25T02:51:01.045Z,1011.37
2022-09-25T02:52:01.157Z,1011.42
2022-09-25T02:53:01.144Z,1011.38
2022-09-25T02:54:01.040Z,1011.38
2022-09-25T02:57:03.935Z,1011.4
2022-09-25T02:58:01.086Z,1011.42
2022-09-25T02:59:01.089Z,1011.4
2022-09-25T03:00:01.093Z,1011.43
2022-09-25T03:01:00.845Z,1011.41
2022-09-25T03:02:01.115Z,1011.36
2022-09-25T03:03:01.257Z,1011.33
2022-09-25T03:04:02.473Z,1011.39
2022-09-25T03:05:01.481Z,1011.37
2022-09-25T03:06:01.595Z,1011.33
2022-09-25T03:07:01.250Z,1011.31
2022-09-25T03:08:02.870Z,1011.35
2022-09-25T03:09:01.869Z,1011.39
2022-09-25T03:10:01.039Z,1011.37
2022-09-25T03:11:00.429Z,1011.37
2022-09-25T03:12:00.030Z,1011.35
2022-09-25T03:13:04.277Z,1011.32
2022-09-25T03:14:01.856Z,1011.33
2022-09-25T03:15:01.858Z,1011.34
2022-09-25T03:16:01.713Z,1011.27
2022-09-25T03:17:02.377Z,1011.28
2022-09-25T03:18:08.546Z,1011.31
2022-09-25T03:19:02.444Z,1011.31
2022-09-25T03:20:01.474Z,1011.3
2022-09-25T03:21:01.069Z,1011.22
2022-09-25T03:22:01.135Z,1011.3
2022-09-25T03:23:10.928Z,1011.28
2022-09-25T03:24:01.771Z,1011.24
2022-09-25T03:25:01.040Z,1011.28
2022-09-25T03:26:00.630Z,1011.25
2022-09-25T03:27:00.264Z,1011.26
2022-09-25T03:28:13.560Z,1011.28
2022-09-25T03:29:00.951Z,1011.25
2022-09-25T03:30:01.067Z,1011.27
2022-09-25T03:31:00.947Z,1011.26
2022-09-25T03:32:01.218Z,1011.23
2022-09-25T03:33:16.745Z,1011.28
2022-09-25T03:34:01.396Z,1011.26
2022-09-25T03:35:04.166Z,1011.25
2022-09-25T03:36:02.037Z,1011.28
2022-09-25T03:37:01.112Z,1011.3
2022-09-25T03:38:01.062Z,1011.29
2022-09-25T03:39:01.379Z,1011.25
2022-09-25T03:40:01.059Z,1011.33
2022-09-25T03:44:01.745Z,1011.35
2022-09-25T03:45:01.063Z,1011.31
2022-09-25T03:46:00.720Z,1011.27
2022-09-25T03:47:00.528Z,1011.28
2022-09-25T03:48:00.180Z,1011.3
2022-09-25T03:48:59.718Z,1011.3
2022-09-25T03:50:01.496Z,1011.29
2022-09-25T03:51:01.499Z,1011.26
2022-09-25T03:52:01.223Z,1011.22
2022-09-25T03:53:01.123Z,1011.24
2022-09-25T03:54:00.739Z,1011.23
2022-09-25T03:55:00.368Z,1011.22
2022-09-25T03:55:59.946Z,1011.21
2022-09-25T03:56:59.534Z,1011.24
2022-09-25T03:58:01.102Z,1011.2
2022-09-25T03:59:01.394Z,1011.22
2022-09-25T04:00:01.383Z,1011.19
2022-09-25T04:01:01.830Z,1011.17
2022-09-25T04:02:01.512Z,1011.22
2022-09-25T04:03:01.435Z,1011.26
2022-09-25T04:04:02.589Z,1011.26
2022-09-25T04:05:01.051Z,1011.2
2022-09-25T04:06:00.704Z,1011.19
2022-09-25T04:07:00.298Z,1011.22
2022-09-25T04:07:59.874Z,1011.23
2022-09-25T04:09:02.186Z,1011.21
2022-09-25T04:10:01.574Z,1011.22
2022-09-25T04:11:01.747Z,1011.2
2022-09-25T04:12:01.067Z,1011.21
2022-09-25T04:13:01.058Z,1011.25
2022-09-25T04:14:00.918Z,1011.25
2022-09-25T04:15:01.058Z,1011.24
2022-09-25T04:16:01.452Z,1011.2
2022-09-25T04:17:01.069Z,1011.24
2022-09-25T04:18:05.967Z,1011.24
2022-09-25T04:19:01.790Z,1011.22
2022-09-25T04:20:04.032Z,1011.23
2022-09-25T04:21:01.407Z,1011.28
2022-09-25T04:22:01.123Z,1011.28
2022-09-25T04:23:01.128Z,1011.23
2022-09-25T04:24:01.048Z,1011.27
2022-09-25T04:25:01.761Z,1011.26
2022-09-25T04:26:01.448Z,1011.22
2022-09-25T04:27:02.622Z,1011.24
2022-09-25T04:28:01.256Z,1011.23
2022-09-25T04:29:02.410Z,1011.21
2022-09-25T04:30:01.155Z,1011.23
2022-09-25T04:31:01.336Z,1011.25
2022-09-25T04:32:01.142Z,1011.26
2022-09-25T04:33:01.053Z,1011.24
2022-09-25T04:34:01.056Z,1011.23
2022-09-25T04:35:01.033Z,1011.29
2022-09-25T04:36:01.212Z,1011.24
2022-09-25T04:37:01.064Z,1011.3
2022-09-25T04:38:01.082Z,1011.28
2022-09-25T04:39:00.644Z,1011.27
2022-09-25T04:40:00.216Z,1011.26
2022-09-25T04:40:59.898Z,1011.24
2022-09-25T04:41:59.604Z,1011.26
2022-09-25T04:43:01.683Z,1011.27
2022-09-25T04:44:01.781Z,1011.29
2022-09-25T04:45:01.681Z,1011.23
2022-09-25T04:46:01.435Z,1011.24
2022-09-25T04:47:02.205Z,1011.18
2022-09-25T04:48:01.535Z,1011.23
2022-09-25T04:49:01.851Z,1011.23
2022-09-25T04:50:02.555Z,1011.24
2022-09-25T04:51:01.829Z,1011.27
2022-09-25T04:52:01.114Z,1011.24
2022-09-25T04:53:01.137Z,1011.25
2022-09-25T04:54:01.107Z,1011.31
2022-09-25T04:55:01.109Z,1011.27
2022-09-25T04:56:00.775Z,1011.28
2022-09-25T04:57:00.488Z,1011.31
2022-09-25T04:58:00.124Z,1011.32
2022-09-25T04:59:03.647Z,1011.28
2022-09-25T05:00:00.855Z,1011.32
2022-09-25T05:01:00.792Z,1011.31
2022-09-25T05:02:00.934Z,1011.3
2022-09-25T05:03:01.472Z,1011.31
2022-09-25T05:04:08.887Z,1011.36
2022-09-25T05:05:01.298Z,1011.39
2022-09-25T05:06:01.823Z,1011.36
2022-09-25T05:07:00.804Z,1011.37
2022-09-25T05:08:00.614Z,1011.37
2022-09-25T05:09:08.690Z,1011.36
2022-09-25T05:10:01.188Z,1011.32
2022-09-25T05:11:01.100Z,1011.36
2022-09-25T05:12:01.548Z,1011.36
2022-09-25T05:13:02.151Z,1011.38
2022-09-25T05:14:12.771Z,1011.33
2022-09-25T05:15:01.087Z,1011.39
2022-09-25T05:16:01.189Z,1011.36
2022-09-25T05:17:01.076Z,1011.43
2022-09-25T05:18:01.083Z,1011.45
2022-09-25T05:19:15.352Z,1011.41
2022-09-25T05:20:00.983Z,1011.48
2022-09-25T05:21:00.821Z,1011.52
2022-09-25T05:22:00.821Z,1011.57
2022-09-25T05:23:00.394Z,1011.51
2022-09-25T05:23:59.937Z,1011.45
2022-09-25T05:24:59.573Z,1011.47
2022-09-25T05:26:01.244Z,1011.51
2022-09-25T05:27:01.129Z,1011.5
2022-09-25T05:28:01.232Z,1011.48
2022-09-25T05:29:01.147Z,1011.53
2022-09-25T05:30:01.490Z,1011.53
2022-09-25T05:31:00.948Z,1011.5
2022-09-25T05:32:01.081Z,1011.51
2022-09-25T05:33:01.060Z,1011.49
2022-09-25T05:34:01.089Z,1011.51
2022-09-25T05:35:01.086Z,1011.52
2022-09-25T05:36:00.797Z,1011.54
2022-09-25T05:37:00.621Z,1011.54
2022-09-25T05:38:00.293Z,1011.58
2022-09-25T05:38:59.857Z,1011.52
2022-09-25T05:40:01.858Z,1011.52
2022-09-25T05:41:01.837Z,1011.54
2022-09-25T05:42:00.818Z,1011.54
2022-09-25T05:43:00.517Z,1011.54
2022-09-25T05:44:00.106Z,1011.52
2022-09-25T05:45:04.962Z,1011.5
2022-09-25T05:46:01.435Z,1011.48
2022-09-25T05:47:02.176Z,1011.48
2022-09-25T05:48:01.067Z,1011.5
2022-09-25T05:49:01.059Z,1011.54
2022-09-25T05:50:01.078Z,1011.5
2022-09-25T05:51:01.276Z,1011.49
2022-09-25T05:52:01.080Z,1011.51
2022-09-25T05:53:01.091Z,1011.52
2022-09-25T05:54:01.243Z,1011.51
2022-09-25T05:55:01.223Z,1011.51
2022-09-25T05:56:01.579Z,1011.5
2022-09-25T05:57:01.140Z,1011.51
2022-09-25T05:58:01.126Z,1011.47
2022-09-25T05:59:01.153Z,1011.48
2022-09-25T06:00:01.143Z,1011.5
2022-09-25T06:01:00.832Z,1011.53
2022-09-25T06:02:00.661Z,1011.49
2022-09-25T06:03:00.372Z,1011.5
2022-09-25T06:03:59.989Z,1011.49
2022-09-25T06:04:59.580Z,1011.51
2022-09-25T06:06:01.688Z,1011.48
2022-09-25T06:07:01.122Z,1011.5
2022-09-25T06:08:01.474Z,1011.48
2022-09-25T06:09:01.092Z,1011.53
2022-09-25T06:10:01.056Z,1011.5
2022-09-25T06:11:00.614Z,1011.49
2022-09-25T06:12:00.205Z,1011.51
2022-09-25T06:12:59.786Z,1011.46
2022-09-25T06:14:01.424Z,1011.5
2022-09-25T06:15:02.488Z,1011.45
2022-09-25T06:16:01.514Z,1011.49
2022-09-25T06:17:01.150Z,1011.48
2022-09-25T06:18:01.269Z,1011.49
2022-09-25T06:19:01.072Z,1011.51
2022-09-25T06:20:01.468Z,1011.5
2022-09-25T06:21:00.646Z,1011.49
2022-09-25T06:22:00.351Z,1011.54
2022-09-25T06:22:59.945Z,1011.52
2022-09-25T06:23:59.541Z,1011.55
2022-09-25T06:25:01.092Z,1011.54
2022-09-25T06:26:01.148Z,1011.55
2022-09-25T06:27:01.808Z,1011.55
2022-09-25T06:28:01.376Z,1011.58
2022-09-25T06:29:03.421Z,1011.57
2022-09-25T06:30:00.714Z,1011.59
2022-09-25T06:31:00.475Z,1011.57
2022-09-25T06:32:00.105Z,1011.61
2022-09-25T06:32:59.689Z,1011.6
2022-09-25T06:34:01.347Z,1011.64
2022-09-25T06:35:01.262Z,1011.62
2022-09-25T06:36:01.058Z,1011.58
2022-09-25T06:37:01.436Z,1011.59
2022-09-25T06:38:01.165Z,1011.54
2022-09-25T06:39:01.049Z,1011.57
2022-09-25T06:40:03.271Z,1011.52
2022-09-25T06:41:01.002Z,1011.51
2022-09-25T06:42:00.783Z,1011.56
2022-09-25T06:43:00.403Z,1011.59
2022-09-25T06:44:00.255Z,1011.6
2022-09-25T06:45:05.509Z,1011.57
2022-09-25T06:46:00.534Z,1011.6
2022-09-25T06:47:00.132Z,1011.58
2022-09-25T06:47:59.692Z,1011.62
2022-09-25T06:49:01.674Z,1011.6
2022-09-25T06:50:08.412Z,1011.58
2022-09-25T06:51:01.885Z,1011.59
2022-09-25T06:52:01.358Z,1011.56
2022-09-25T06:53:01.062Z,1011.62
2022-09-25T06:54:01.081Z,1011.58
2022-09-25T06:55:10.711Z,1011.61
2022-09-25T06:56:00.704Z,1011.57
2022-09-25T06:57:00.397Z,1011.59
2022-09-25T06:57:59.967Z,1011.59
2022-09-25T06:58:59.682Z,1011.59
2022-09-25T07:00:13.886Z,1011.6
2022-09-25T07:01:05.131Z,1011.62
2022-09-25T07:02:01.202Z,1011.63
2022-09-25T07:03:00.605Z,1011.62
2022-09-25T07:04:00.225Z,1011.56
2022-09-25T07:05:14.198Z,1011.56
2022-09-25T07:06:00.729Z,1011.64
2022-09-25T07:07:00.529Z,1011.57
2022-09-25T07:08:00.145Z,1011.58
2022-09-25T07:08:59.737Z,1011.57
2022-09-25T07:10:01.381Z,1011.54
2022-09-25T07:11:01.079Z,1011.52
2022-09-25T07:12:01.697Z,1011.51
2022-09-25T07:13:01.058Z,1011.52
2022-09-25T07:14:01.047Z,1011.57
2022-09-25T07:15:01.105Z,1011.59
2022-09-25T07:16:00.794Z,1011.51
2022-09-25T07:17:01.512Z,1011.53
2022-09-25T07:18:01.251Z,1011.53
2022-09-25T07:19:01.167Z,1011.55
2022-09-25T07:20:01.151Z,1011.49
2022-09-25T07:21:00.742Z,1011.5
2022-09-25T07:22:00.578Z,1011.43
2022-09-25T07:23:00.237Z,1011.44
2022-09-25T07:23:59.947Z,1011.46
2022-09-25T07:24:59.612Z,1011.43
2022-09-25T07:26:01.440Z,1011.38
2022-09-25T07:27:03.855Z,1011.4
2022-09-25T07:28:02.819Z,1011.41
2022-09-25T07:29:01.754Z,1011.39
2022-09-25T07:30:01.108Z,1011.41
2022-09-25T07:31:00.740Z,1011.38
2022-09-25T07:32:00.392Z,1011.39
2022-09-25T07:33:00.392Z,1011.41
2022-09-25T07:34:00.013Z,1011.39
2022-09-25T07:34:59.700Z,1011.36
2022-09-25T07:36:01.906Z,1011.36
2022-09-25T07:37:02.083Z,1011.4
2022-09-25T07:38:01.063Z,1011.42
2022-09-25T07:39:01.101Z,1011.41
2022-09-25T07:40:01.074Z,1011.42
2022-09-25T07:44:37.955Z,1011.38
2022-09-25T07:45:01.332Z,1011.36
2022-09-25T07:46:01.030Z,1011.38
2022-09-25T07:47:01.124Z,1011.39
2022-09-25T07:48:01.058Z,1011.4
2022-09-25T07:49:01.128Z,1011.37
2022-09-25T07:50:01.128Z,1011.4
2022-09-25T07:51:00.719Z,1011.41
2022-09-25T07:52:00.316Z,1011.39
2022-09-25T07:52:59.875Z,1011.39
2022-09-25T07:53:59.517Z,1011.43
2022-09-25T07:55:01.769Z,1011.42
2022-09-25T07:56:06.137Z,1011.43
2022-09-25T07:57:01.774Z,1011.45
2022-09-25T07:58:01.079Z,1011.41
2022-09-25T07:59:01.243Z,1011.45
2022-09-25T08:00:01.237Z,1011.47
2022-09-25T08:01:01.040Z,1011.42
2022-09-25T08:02:01.178Z,1011.45
2022-09-25T08:03:00.671Z,1011.47
2022-09-25T08:04:00.420Z,1011.45
2022-09-25T08:05:00.034Z,1011.45
2022-09-25T08:05:59.711Z,1011.46
2022-09-25T08:07:01.303Z,1011.41
2022-09-25T08:08:01.993Z,1011.44
2022-09-25T08:09:04.577Z,1011.45
2022-09-25T08:10:01.989Z,1011.44
2022-09-25T08:11:01.831Z,1011.45
2022-09-25T08:12:01.753Z,1011.44
2022-09-25T08:13:01.823Z,1011.44
2022-09-25T08:14:02.312Z,1011.45
2022-09-25T08:15:01.525Z,1011.44
2022-09-25T08:16:02.118Z,1011.49
2022-09-25T08:17:01.107Z,1011.5
2022-09-25T08:18:01.105Z,1011.48
2022-09-25T08:19:01.119Z,1011.49
2022-09-25T08:20:01.145Z,1011.47
2022-09-25T08:21:00.719Z,1011.48
2022-09-25T08:22:00.290Z,1011.49
2022-09-25T08:23:00.119Z,1011.49
2022-09-25T08:24:00.127Z,1011.47
2022-09-25T08:24:59.836Z,1011.47
2022-09-25T08:26:02.501Z,1011.44
2022-09-25T08:27:02.746Z,1011.46
2022-09-25T08:28:01.068Z,1011.43
2022-09-25T08:29:01.058Z,1011.44
2022-09-25T08:30:01.090Z,1011.41
2022-09-25T08:31:00.851Z,1011.44
2022-09-25T08:32:01.105Z,1011.43
2022-09-25T08:33:01.104Z,1011.38
2022-09-25T08:34:15.266Z,1011.37
2022-09-25T08:35:01.114Z,1011.36
2022-09-25T08:36:00.636Z,1011.29
2022-09-25T08:37:00.310Z,1011.36
2022-09-25T08:37:59.896Z,1011.36
2022-09-25T08:38:59.498Z,1011.36
2022-09-25T08:40:02.966Z,1011.3
2022-09-25T08:41:01.224Z,1011.32
2022-09-25T08:42:01.050Z,1011.3
2022-09-25T08:43:01.198Z,1011.37
2022-09-25T08:44:01.084Z,1011.34
2022-09-25T08:45:19.921Z,1011.37
2022-09-25T08:46:00.720Z,1011.37
2022-09-25T08:47:00.486Z,1011.35
2022-09-25T08:48:00.061Z,1011.36
2022-09-25T08:49:00.394Z,1011.34
2022-09-25T08:50:00.188Z,1011.35
2022-09-25T08:51:02.492Z,1011.37
2022-09-25T08:52:01.850Z,1011.32
2022-09-25T08:53:01.167Z,1011.35
2022-09-25T08:54:01.157Z,1011.33
2022-09-25T08:55:01.158Z,1011.25
2022-09-25T08:56:04.422Z,1011.27
2022-09-25T08:57:01.461Z,1011.24
2022-09-25T08:58:01.297Z,1011.25
2022-09-25T08:59:01.318Z,1011.24
2022-09-25T09:00:02.472Z,1011.26
2022-09-25T09:01:07.071Z,1011.25
2022-09-25T09:02:01.389Z,1011.22
2022-09-25T09:03:01.141Z,1011.21
2022-09-25T09:04:01.115Z,1011.22
2022-09-25T09:05:01.122Z,1011.25
2022-09-25T09:06:02.689Z,1011.22
2022-09-25T09:07:25.161Z,1011.21
2022-09-25T09:08:01.348Z,1011.18
2022-09-25T09:09:01.148Z,1011.19
2022-09-25T09:10:01.158Z,1011.18
2022-09-25T09:11:13.548Z,1011.12
2022-09-25T09:12:01.163Z,1011.13
2022-09-25T09:13:01.181Z,1011.13
2022-09-25T09:14:01.077Z,1011.08
2022-09-25T09:15:01.084Z,1011.11
2022-09-25T09:16:12.683Z,1011.1
2022-09-25T09:17:01.758Z,1011.08
2022-09-25T09:18:03.650Z,1011.07
2022-09-25T09:19:01.786Z,1011.08
2022-09-25T09:20:01.834Z,1011.08
2022-09-25T09:21:13.935Z,1011.03
2022-09-25T09:22:01.469Z,1010.98
2022-09-25T09:23:01.789Z,1010.99
2022-09-25T09:24:01.057Z,1011.03
2022-09-25T09:25:01.040Z,1011.01
2022-09-25T09:26:10.175Z,1011
2022-09-25T09:27:01.239Z,1010.99
2022-09-25T09:28:01.142Z,1010.98
2022-09-25T09:29:01.044Z,1011.06
2022-09-25T09:30:05.454Z,1011
2022-09-25T09:31:00.809Z,1011.02
2022-09-25T09:32:01.090Z,1011
2022-09-25T09:33:01.085Z,1011.01
2022-09-25T09:34:01.114Z,1010.98
2022-09-25T09:35:06.278Z,1011.02
2022-09-25T09:36:00.695Z,1010.97
2022-09-25T09:37:00.266Z,1011.01
2022-09-25T09:37:59.806Z,1010.97
2022-09-25T09:39:01.405Z,1010.96
2022-09-25T09:40:02.038Z,1010.98
2022-09-25T09:41:01.126Z,1010.93
2022-09-25T09:41:59.502Z,1010.94
2022-09-25T09:43:01.282Z,1010.97
2022-09-25T09:44:02.009Z,1010.97
2022-09-25T09:45:02.086Z,1010.94
2022-09-25T09:46:01.488Z,1010.96
2022-09-25T09:47:03.044Z,1010.96
2022-09-25T09:48:01.108Z,1010.96
2022-09-25T09:49:01.163Z,1010.93
2022-09-25T09:50:01.038Z,1010.93
2022-09-25T09:51:00.680Z,1010.93
2022-09-25T09:52:00.288Z,1010.93
2022-09-25T09:52:59.893Z,1010.92
2022-09-25T09:53:59.469Z,1010.93
2022-09-25T09:55:02.810Z,1010.88
2022-09-25T09:56:01.081Z,1010.89
2022-09-25T09:57:01.144Z,1010.86
2022-09-25T09:58:01.313Z,1010.85
2022-09-25T09:59:01.354Z,1010.87
2022-09-25T10:00:05.369Z,1010.82
2022-09-25T10:01:15.931Z,1010.82
2022-09-25T10:02:01.666Z,1010.82
2022-09-25T10:03:01.400Z,1010.77
2022-09-25T10:04:01.079Z,1010.85
2022-09-25T10:05:01.825Z,1010.82
2022-09-25T10:06:01.542Z,1010.77
2022-09-25T10:07:01.127Z,1010.76
2022-09-25T10:08:01.168Z,1010.76
2022-09-25T10:09:01.117Z,1010.74
2022-09-25T10:10:01.135Z,1010.72
2022-09-25T10:11:00.820Z,1010.73
2022-09-25T10:12:01.515Z,1010.72
2022-09-25T10:13:06.199Z,1010.71
2022-09-25T10:14:01.962Z,1010.71
2022-09-25T10:15:01.037Z,1010.74
2022-09-25T10:16:00.601Z,1010.8
2022-09-25T10:17:00.259Z,1010.74
2022-09-25T10:17:59.943Z,1010.72
2022-09-25T10:18:59.679Z,1010.7
2022-09-25T10:20:01.384Z,1010.72
2022-09-25T10:21:00.973Z,1010.68
2022-09-25T10:22:01.263Z,1010.68
2022-09-25T10:23:00.700Z,1010.68
2022-09-25T10:24:00.389Z,1010.66
2022-09-25T10:25:00.074Z,1010.68
2022-09-25T10:25:59.760Z,1010.66
2022-09-25T10:27:01.537Z,1010.65
2022-09-25T10:28:02.374Z,1010.67
2022-09-25T10:29:01.282Z,1010.68
2022-09-25T10:30:02.000Z,1010.67
2022-09-25T10:31:01.110Z,1010.63
2022-09-25T10:32:01.304Z,1010.64
2022-09-25T10:33:01.386Z,1010.66
2022-09-25T10:34:01.482Z,1010.67
2022-09-25T10:35:04.104Z,1010.64
2022-09-25T10:36:01.063Z,1010.66
2022-09-25T10:37:01.096Z,1010.68
2022-09-25T10:38:01.067Z,1010.67
2022-09-25T10:39:18.080Z,1010.6
2022-09-25T10:40:01.150Z,1010.67
2022-09-25T10:41:00.735Z,1010.67
2022-09-25T10:42:00.292Z,1010.65
2022-09-25T10:42:59.906Z,1010.65
2022-09-25T10:43:59.584Z,1010.65
2022-09-25T10:45:01.168Z,1010.67
2022-09-25T10:46:00.802Z,1010.65
2022-09-25T10:47:00.438Z,1010.65
2022-09-25T10:48:00.030Z,1010.7
2022-09-25T10:48:59.614Z,1010.64
2022-09-25T10:50:01.854Z,1010.62
2022-09-25T10:51:01.284Z,1010.63
2022-09-25T10:52:01.294Z,1010.59
2022-09-25T10:53:01.386Z,1010.62
2022-09-25T10:54:01.420Z,1010.59
2022-09-25T10:55:01.181Z,1010.58
2022-09-25T10:56:00.842Z,1010.54
2022-09-25T10:57:03.941Z,1010.58
2022-09-25T10:58:01.174Z,1010.55
2022-09-25T10:59:01.141Z,1010.53
2022-09-25T11:00:01.147Z,1010.51
2022-09-25T11:01:01.132Z,1010.54
2022-09-25T11:02:06.439Z,1010.48
2022-09-25T11:03:01.293Z,1010.49
2022-09-25T11:04:02.273Z,1010.48
2022-09-25T11:05:01.962Z,1010.47
2022-09-25T11:06:00.661Z,1010.41
2022-09-25T11:07:08.373Z,1010.42
2022-09-25T11:08:01.813Z,1010.41
2022-09-25T11:09:02.107Z,1010.38
2022-09-25T11:10:01.788Z,1010.36
2022-09-25T11:11:00.683Z,1010.33
2022-09-25T11:12:09.928Z,1010.38
2022-09-25T11:13:01.383Z,1010.3
2022-09-25T11:14:02.695Z,1010.32
2022-09-25T11:15:02.646Z,1010.28
2022-09-25T11:16:01.298Z,1010.26
2022-09-25T11:17:14.403Z,1010.25
2022-09-25T11:18:01.257Z,1010.27
2022-09-25T11:19:04.693Z,1010.29
2022-09-25T11:20:02.475Z,1010.3
2022-09-25T11:21:01.433Z,1010.33
2022-09-25T11:22:16.095Z,1010.31
2022-09-25T11:23:01.193Z,1010.27
2022-09-25T11:24:01.099Z,1010.23
2022-09-25T11:25:01.744Z,1010.26
2022-09-25T11:26:01.074Z,1010.25
2022-09-25T11:27:01.048Z,1010.21
2022-09-25T11:28:01.098Z,1010.19
2022-09-25T11:29:01.428Z,1010.18
2022-09-25T11:30:01.055Z,1010.19
2022-09-25T11:31:00.758Z,1010.14
2022-09-25T11:32:00.413Z,1010.17
2022-09-25T11:33:00.028Z,1010.16
2022-09-25T11:33:59.609Z,1010.13
2022-09-25T11:35:01.160Z,1010.09
2022-09-25T11:36:00.764Z,1010.07
2022-09-25T11:37:00.349Z,1010.1
2022-09-25T11:38:02.344Z,1010.05
2022-09-25T11:39:01.083Z,1010.06
2022-09-25T11:40:01.949Z,1010.01
2022-09-25T11:41:00.876Z,1009.99
2022-09-25T11:42:00.410Z,1010
2022-09-25T11:43:00.109Z,1009.97
2022-09-25T11:44:00.154Z,1010.03
2022-09-25T11:44:59.793Z,1009.96
2022-09-25T11:46:01.526Z,1009.94
2022-09-25T11:47:02.165Z,1009.93
2022-09-25T11:48:01.151Z,1009.93
2022-09-25T11:49:01.055Z,1009.89
2022-09-25T11:50:01.084Z,1009.9
2022-09-25T11:51:00.677Z,1009.93
2022-09-25T11:52:00.373Z,1009.94
2022-09-25T11:52:59.944Z,1009.93
2022-09-25T11:54:17.865Z,1009.94
2022-09-25T11:55:01.043Z,1009.94
2022-09-25T11:56:00.619Z,1009.97
2022-09-25T11:57:00.276Z,1009.97
2022-09-25T11:57:59.873Z,1009.95
2022-09-25T11:59:01.521Z,1009.9
2022-09-25T12:00:01.179Z,1009.94
2022-09-25T12:01:00.872Z,1009.95
2022-09-25T12:02:01.533Z,1009.91
2022-09-25T12:03:00.758Z,1009.92
2022-09-25T12:04:00.327Z,1009.92
2022-09-25T12:05:00.005Z,1009.89
2022-09-25T12:05:59.721Z,1009.86
2022-09-25T12:07:01.720Z,1009.86
2022-09-25T12:08:01.751Z,1009.84
2022-09-25T12:09:01.393Z,1009.84
2022-09-25T12:10:02.024Z,1009.83
2022-09-25T12:11:01.123Z,1009.89
2022-09-25T12:12:01.092Z,1009.83
2022-09-25T12:13:01.111Z,1009.85
2022-09-25T12:14:01.041Z,1009.86
2022-09-25T12:15:01.046Z,1009.83
2022-09-25T12:16:01.162Z,1009.87